sensor_id;sensor_type;location;lat;lon;timestamp;P1;durP1;ratioP1;P2;durP2;ratioP2
27489;SDS011;14925;51.026;13.752;2022-12-16T00:00:20;135.23;;;54.63;;
27489;SDS011;14925;51.026;13.752;2022-12-16T00:02:46;127.80;;;52.88;;
27489;SDS011;14925;51.026;13.752;2022-12-16T00:05:12;133.80;;;56.17;;
27489;SDS011;14925;51.026;13.752;2022-12-16T00:07:37;134.02;;;55.97;;
27489;SDS011;14925;51.026;13.752;2022-12-16T00:10:03;134.35;;;56.03;;
27489;SDS011;14925;51.026;13.752;2022-12-16T00:12:28;132.15;;;55.15;;
27489;SDS011;14925;51.026;13.752;2022-12-16T00:14:54;141.65;;;57.22;;
27489;SDS011;14925;51.026;13.752;2022-12-16T00:17:19;132.40;;;55.42;;
27489;SDS011;14925;51.026;13.752;2022-12-16T00:19:44;143.63;;;58.28;;
27489;SDS011;14925;51.026;13.752;2022-12-16T00:22:10;141.25;;;57.13;;
27489;SDS011;14925;51.026;13.752;2022-12-16T00:24:35;135.32;;;56.05;;
27489;SDS011;14925;51.026;13.752;2022-12-16T00:27:00;132.30;;;53.65;;
27489;SDS011;14925;51.026;13.752;2022-12-16T00:29:26;143.52;;;54.97;;
27489;SDS011;14925;51.026;13.752;2022-12-16T00:31:51;153.05;;;59.75;;
27489;SDS011;14925;51.026;13.752;2022-12-16T00:34:17;153.05;;;59.95;;
27489;SDS011;14925;51.026;13.752;2022-12-16T00:36:42;168.25;;;61.20;;
27489;SDS011;14925;51.026;13.752;2022-12-16T00:39:08;177.82;;;65.35;;
27489;SDS011;14925;51.026;13.752;2022-12-16T00:41:37;177.70;;;61.28;;
27489;SDS011;14925;51.026;13.752;2022-12-16T00:44:02;194.70;;;64.38;;
27489;SDS011;14925;51.026;13.752;2022-12-16T00:46:28;170.27;;;60.53;;
27489;SDS011;14925;51.026;13.752;2022-12-16T00:48:53;171.45;;;61.38;;
27489;SDS011;14925;51.026;13.752;2022-12-16T00:51:19;171.35;;;60.85;;
27489;SDS011;14925;51.026;13.752;2022-12-16T00:53:45;161.95;;;60.88;;
27489;SDS011;14925;51.026;13.752;2022-12-16T00:56:11;162.35;;;60.63;;
27489;SDS011;14925;51.026;13.752;2022-12-16T00:58:42;157.30;;;57.63;;
27489;SDS011;14925;51.026;13.752;2022-12-16T01:01:07;152.05;;;59.13;;
27489;SDS011;14925;51.026;13.752;2022-12-16T01:03:33;154.40;;;57.55;;
27489;SDS011;14925;51.026;13.752;2022-12-16T01:05:59;145.65;;;58.47;;
27489;SDS011;14925;51.026;13.752;2022-12-16T01:08:24;150.43;;;60.63;;
27489;SDS011;14925;51.026;13.752;2022-12-16T01:10:54;154.73;;;59.85;;
27489;SDS011;14925;51.026;13.752;2022-12-16T01:13:21;148.48;;;58.58;;
27489;SDS011;14925;51.026;13.752;2022-12-16T01:15:48;146.23;;;58.05;;
27489;SDS011;14925;51.026;13.752;2022-12-16T01:18:13;139.18;;;57.45;;
27489;SDS011;14925;51.026;13.752;2022-12-16T01:20:39;142.73;;;58.65;;
27489;SDS011;14925;51.026;13.752;2022-12-16T01:23:04;147.48;;;58.00;;
27489;SDS011;14925;51.026;13.752;2022-12-16T01:25:29;151.38;;;60.40;;
27489;SDS011;14925;51.026;13.752;2022-12-16T01:27:55;142.75;;;59.17;;
27489;SDS011;14925;51.026;13.752;2022-12-16T01:30:21;143.43;;;57.80;;
27489;SDS011;14925;51.026;13.752;2022-12-16T01:32:46;136.63;;;57.17;;
27489;SDS011;14925;51.026;13.752;2022-12-16T01:35:12;145.27;;;57.47;;
27489;SDS011;14925;51.026;13.752;2022-12-16T01:37:37;146.27;;;59.10;;
27489;SDS011;14925;51.026;13.752;2022-12-16T01:40:03;138.68;;;57.25;;
27489;SDS011;14925;51.026;13.752;2022-12-16T01:42:29;142.85;;;58.03;;
27489;SDS011;14925;51.026;13.752;2022-12-16T01:44:56;141.15;;;58.53;;
27489;SDS011;14925;51.026;13.752;2022-12-16T01:47:54;141.05;;;57.83;;
27489;SDS011;14925;51.026;13.752;2022-12-16T01:50:21;137.23;;;57.72;;
27489;SDS011;14925;51.026;13.752;2022-12-16T01:52:48;145.18;;;59.10;;
27489;SDS011;14925;51.026;13.752;2022-12-16T01:55:20;143.18;;;57.63;;
27489;SDS011;14925;51.026;13.752;2022-12-16T01:58:09;138.13;;;57.47;;
27489;SDS011;14925;51.026;13.752;2022-12-16T02:00:38;138.85;;;57.13;;
27489;SDS011;14925;51.026;13.752;2022-12-16T02:03:05;132.52;;;54.92;;
27489;SDS011;14925;51.026;13.752;2022-12-16T02:05:31;136.18;;;57.33;;
27489;SDS011;14925;51.026;13.752;2022-12-16T02:32:16;135.93;;;56.03;;
27489;SDS011;14925;51.026;13.752;2022-12-16T02:40:33;133.43;;;55.25;;
27489;SDS011;14925;51.026;13.752;2022-12-16T02:43:06;141.75;;;57.15;;
27489;SDS011;14925;51.026;13.752;2022-12-16T02:45:59;130.32;;;55.47;;
27489;SDS011;14925;51.026;13.752;2022-12-16T02:48:25;132.95;;;54.75;;
27489;SDS011;14925;51.026;13.752;2022-12-16T02:50:50;134.50;;;56.65;;
27489;SDS011;14925;51.026;13.752;2022-12-16T02:53:17;137.38;;;56.15;;
27489;SDS011;14925;51.026;13.752;2022-12-16T03:06:46;133.85;;;56.17;;
27489;SDS011;14925;51.026;13.752;2022-12-16T03:09:13;135.02;;;56.65;;
27489;SDS011;14925;51.026;13.752;2022-12-16T03:11:42;130.45;;;55.10;;
27489;SDS011;14925;51.026;13.752;2022-12-16T03:14:08;142.02;;;57.70;;
27489;SDS011;14925;51.026;13.752;2022-12-16T03:16:35;146.40;;;59.60;;
27489;SDS011;14925;51.026;13.752;2022-12-16T03:19:04;146.45;;;58.80;;
27489;SDS011;14925;51.026;13.752;2022-12-16T03:21:37;134.45;;;54.92;;
27489;SDS011;14925;51.026;13.752;2022-12-16T03:24:08;136.38;;;56.60;;
27489;SDS011;14925;51.026;13.752;2022-12-16T03:26:38;138.18;;;58.40;;
27489;SDS011;14925;51.026;13.752;2022-12-16T03:29:45;129.80;;;55.10;;
27489;SDS011;14925;51.026;13.752;2022-12-16T03:32:23;127.03;;;54.35;;
27489;SDS011;14925;51.026;13.752;2022-12-16T03:35:01;125.75;;;53.53;;
27489;SDS011;14925;51.026;13.752;2022-12-16T03:37:51;127.13;;;53.05;;
27489;SDS011;14925;51.026;13.752;2022-12-16T03:40:19;127.28;;;53.30;;
27489;SDS011;14925;51.026;13.752;2022-12-16T03:42:45;122.55;;;52.17;;
27489;SDS011;14925;51.026;13.752;2022-12-16T03:45:12;118.90;;;50.72;;
27489;SDS011;14925;51.026;13.752;2022-12-16T03:47:40;116.15;;;48.05;;
27489;SDS011;14925;51.026;13.752;2022-12-16T03:50:06;126.53;;;50.65;;
27489;SDS011;14925;51.026;13.752;2022-12-16T03:52:32;110.50;;;46.90;;
27489;SDS011;14925;51.026;13.752;2022-12-16T03:54:58;117.35;;;47.65;;
27489;SDS011;14925;51.026;13.752;2022-12-16T03:57:23;115.70;;;48.40;;
27489;SDS011;14925;51.026;13.752;2022-12-16T03:59:49;117.30;;;48.20;;
27489;SDS011;14925;51.026;13.752;2022-12-16T04:02:14;105.93;;;46.95;;
27489;SDS011;14925;51.026;13.752;2022-12-16T04:04:39;106.57;;;46.42;;
27489;SDS011;14925;51.026;13.752;2022-12-16T04:07:05;105.85;;;46.45;;
27489;SDS011;14925;51.026;13.752;2022-12-16T04:09:46;106.95;;;46.42;;
27489;SDS011;14925;51.026;13.752;2022-12-16T04:12:12;97.70;;;43.15;;
27489;SDS011;14925;51.026;13.752;2022-12-16T04:14:56;99.32;;;43.85;;
27489;SDS011;14925;51.026;13.752;2022-12-16T04:17:41;100.53;;;42.50;;
27489;SDS011;14925;51.026;13.752;2022-12-16T04:20:27;101.65;;;42.00;;
27489;SDS011;14925;51.026;13.752;2022-12-16T04:23:13;97.10;;;41.88;;
27489;SDS011;14925;51.026;13.752;2022-12-16T04:25:57;93.35;;;41.60;;
27489;SDS011;14925;51.026;13.752;2022-12-16T04:28:22;98.07;;;41.78;;
27489;SDS011;14925;51.026;13.752;2022-12-16T04:30:48;87.95;;;39.45;;
27489;SDS011;14925;51.026;13.752;2022-12-16T04:33:13;98.53;;;41.00;;
27489;SDS011;14925;51.026;13.752;2022-12-16T04:35:58;89.68;;;39.35;;
27489;SDS011;14925;51.026;13.752;2022-12-16T04:38:42;93.50;;;38.28;;
27489;SDS011;14925;51.026;13.752;2022-12-16T04:41:26;92.72;;;38.53;;
27489;SDS011;14925;51.026;13.752;2022-12-16T04:44:10;82.40;;;38.38;;
27489;SDS011;14925;51.026;13.752;2022-12-16T04:46:54;87.25;;;39.28;;
27489;SDS011;14925;51.026;13.752;2022-12-16T04:49:38;89.25;;;39.15;;
27489;SDS011;14925;51.026;13.752;2022-12-16T04:52:23;86.30;;;39.80;;
27489;SDS011;14925;51.026;13.752;2022-12-16T04:55:07;80.57;;;37.20;;
27489;SDS011;14925;51.026;13.752;2022-12-16T04:57:56;86.68;;;36.83;;
27489;SDS011;14925;51.026;13.752;2022-12-16T05:00:41;83.45;;;37.53;;
27489;SDS011;14925;51.026;13.752;2022-12-16T05:03:27;82.18;;;37.13;;
27489;SDS011;14925;51.026;13.752;2022-12-16T05:06:12;84.32;;;36.40;;
27489;SDS011;14925;51.026;13.752;2022-12-16T05:08:56;84.03;;;36.63;;
27489;SDS011;14925;51.026;13.752;2022-12-16T05:11:40;62.88;;;27.77;;
27489;SDS011;14925;51.026;13.752;2022-12-16T05:14:24;89.35;;;38.60;;
27489;SDS011;14925;51.026;13.752;2022-12-16T05:17:09;80.38;;;35.55;;
27489;SDS011;14925;51.026;13.752;2022-12-16T05:19:53;86.63;;;36.80;;
27489;SDS011;14925;51.026;13.752;2022-12-16T05:22:40;80.38;;;36.22;;
27489;SDS011;14925;51.026;13.752;2022-12-16T05:25:24;83.38;;;37.45;;
27489;SDS011;14925;51.026;13.752;2022-12-16T05:28:08;79.03;;;36.08;;
27489;SDS011;14925;51.026;13.752;2022-12-16T05:30:52;79.78;;;35.47;;
27489;SDS011;14925;51.026;13.752;2022-12-16T05:33:36;83.32;;;36.10;;
27489;SDS011;14925;51.026;13.752;2022-12-16T05:36:20;82.93;;;35.80;;
27489;SDS011;14925;51.026;13.752;2022-12-16T05:39:04;81.10;;;37.03;;
27489;SDS011;14925;51.026;13.752;2022-12-16T05:41:48;79.72;;;36.28;;
27489;SDS011;14925;51.026;13.752;2022-12-16T05:44:32;86.90;;;35.83;;
27489;SDS011;14925;51.026;13.752;2022-12-16T05:47:15;80.90;;;36.92;;
27489;SDS011;14925;51.026;13.752;2022-12-16T05:50:00;78.40;;;36.15;;
27489;SDS011;14925;51.026;13.752;2022-12-16T05:52:51;77.40;;;34.20;;
27489;SDS011;14925;51.026;13.752;2022-12-16T05:55:35;75.07;;;34.45;;
27489;SDS011;14925;51.026;13.752;2022-12-16T05:58:19;81.50;;;35.58;;
27489;SDS011;14925;51.026;13.752;2022-12-16T06:01:04;81.97;;;35.78;;
27489;SDS011;14925;51.026;13.752;2022-12-16T06:03:48;77.68;;;33.58;;
27489;SDS011;14925;51.026;13.752;2022-12-16T06:06:32;89.00;;;37.05;;
27489;SDS011;14925;51.026;13.752;2022-12-16T06:09:16;81.13;;;36.20;;
27489;SDS011;14925;51.026;13.752;2022-12-16T06:12:00;78.65;;;34.55;;
27489;SDS011;14925;51.026;13.752;2022-12-16T06:14:47;78.55;;;35.00;;
27489;SDS011;14925;51.026;13.752;2022-12-16T06:17:31;82.95;;;34.75;;
27489;SDS011;14925;51.026;13.752;2022-12-16T06:20:15;82.13;;;35.63;;
27489;SDS011;14925;51.026;13.752;2022-12-16T06:22:59;81.13;;;35.55;;
27489;SDS011;14925;51.026;13.752;2022-12-16T06:25:43;78.60;;;34.90;;
27489;SDS011;14925;51.026;13.752;2022-12-16T06:28:32;81.80;;;36.10;;
27489;SDS011;14925;51.026;13.752;2022-12-16T06:31:16;83.28;;;37.08;;
27489;SDS011;14925;51.026;13.752;2022-12-16T06:34:00;79.40;;;36.35;;
27489;SDS011;14925;51.026;13.752;2022-12-16T06:36:44;82.20;;;36.83;;
27489;SDS011;14925;51.026;13.752;2022-12-16T06:39:28;85.50;;;36.30;;
27489;SDS011;14925;51.026;13.752;2022-12-16T06:42:12;90.50;;;36.35;;
27489;SDS011;14925;51.026;13.752;2022-12-16T06:44:56;87.10;;;37.63;;
27489;SDS011;14925;51.026;13.752;2022-12-16T06:47:43;88.20;;;36.58;;
27489;SDS011;14925;51.026;13.752;2022-12-16T06:50:28;86.13;;;36.83;;
27489;SDS011;14925;51.026;13.752;2022-12-16T06:53:13;82.75;;;35.65;;
27489;SDS011;14925;51.026;13.752;2022-12-16T06:55:57;82.43;;;37.10;;
27489;SDS011;14925;51.026;13.752;2022-12-16T06:58:42;81.75;;;35.60;;
27489;SDS011;14925;51.026;13.752;2022-12-16T07:01:26;88.45;;;37.40;;
27489;SDS011;14925;51.026;13.752;2022-12-16T07:04:10;90.15;;;36.88;;
27489;SDS011;14925;51.026;13.752;2022-12-16T07:06:54;87.68;;;37.25;;
27489;SDS011;14925;51.026;13.752;2022-12-16T07:09:40;84.63;;;37.28;;
27489;SDS011;14925;51.026;13.752;2022-12-16T07:12:35;90.80;;;39.22;;
27489;SDS011;14925;51.026;13.752;2022-12-16T07:18:03;92.07;;;38.40;;
27489;SDS011;14925;51.026;13.752;2022-12-16T07:20:47;90.15;;;40.35;;
27489;SDS011;14925;51.026;13.752;2022-12-16T07:23:31;98.80;;;41.70;;
27489;SDS011;14925;51.026;13.752;2022-12-16T07:26:15;96.38;;;40.55;;
27489;SDS011;14925;51.026;13.752;2022-12-16T07:28:59;98.05;;;41.00;;
27489;SDS011;14925;51.026;13.752;2022-12-16T07:31:43;89.03;;;40.85;;
27489;SDS011;14925;51.026;13.752;2022-12-16T07:34:27;98.90;;;43.42;;
27489;SDS011;14925;51.026;13.752;2022-12-16T07:37:11;96.90;;;41.55;;
27489;SDS011;14925;51.026;13.752;2022-12-16T07:39:55;96.57;;;43.38;;
27489;SDS011;14925;51.026;13.752;2022-12-16T07:42:40;100.78;;;43.15;;
27489;SDS011;14925;51.026;13.752;2022-12-16T07:45:25;98.53;;;43.15;;
27489;SDS011;14925;51.026;13.752;2022-12-16T07:48:09;100.88;;;44.15;;
27489;SDS011;14925;51.026;13.752;2022-12-16T07:50:53;102.55;;;45.20;;
27489;SDS011;14925;51.026;13.752;2022-12-16T07:53:37;106.07;;;45.75;;
27489;SDS011;14925;51.026;13.752;2022-12-16T07:56:21;106.07;;;45.92;;
27489;SDS011;14925;51.026;13.752;2022-12-16T07:59:05;112.03;;;46.47;;
27489;SDS011;14925;51.026;13.752;2022-12-16T08:01:49;108.68;;;44.90;;
27489;SDS011;14925;51.026;13.752;2022-12-16T08:04:33;106.10;;;47.30;;
27489;SDS011;14925;51.026;13.752;2022-12-16T08:07:17;110.72;;;47.60;;
27489;SDS011;14925;51.026;13.752;2022-12-16T08:10:02;112.07;;;48.88;;
27489;SDS011;14925;51.026;13.752;2022-12-16T08:12:46;113.80;;;48.50;;
27489;SDS011;14925;51.026;13.752;2022-12-16T08:15:30;112.63;;;48.92;;
27489;SDS011;14925;51.026;13.752;2022-12-16T08:18:14;120.10;;;49.05;;
27489;SDS011;14925;51.026;13.752;2022-12-16T08:20:58;105.68;;;47.78;;
27489;SDS011;14925;51.026;13.752;2022-12-16T08:23:42;110.60;;;48.42;;
27489;SDS011;14925;51.026;13.752;2022-12-16T08:26:26;116.47;;;49.70;;
27489;SDS011;14925;51.026;13.752;2022-12-16T08:29:10;120.85;;;51.55;;
27489;SDS011;14925;51.026;13.752;2022-12-16T08:31:56;122.60;;;51.88;;
27489;SDS011;14925;51.026;13.752;2022-12-16T08:34:40;121.07;;;51.63;;
27489;SDS011;14925;51.026;13.752;2022-12-16T08:37:27;121.95;;;51.28;;
27489;SDS011;14925;51.026;13.752;2022-12-16T08:40:15;126.57;;;51.97;;
27489;SDS011;14925;51.026;13.752;2022-12-16T08:42:58;125.57;;;53.72;;
27489;SDS011;14925;51.026;13.752;2022-12-16T08:45:56;121.03;;;52.67;;
27489;SDS011;14925;51.026;13.752;2022-12-16T08:48:40;121.47;;;52.70;;
27489;SDS011;14925;51.026;13.752;2022-12-16T08:51:24;133.05;;;56.42;;
27489;SDS011;14925;51.026;13.752;2022-12-16T08:56:52;128.82;;;53.28;;
27489;SDS011;14925;51.026;13.752;2022-12-16T08:59:36;124.45;;;52.80;;
27489;SDS011;14925;51.026;13.752;2022-12-16T09:02:20;122.70;;;51.92;;
27489;SDS011;14925;51.026;13.752;2022-12-16T09:05:04;125.30;;;52.13;;
27489;SDS011;14925;51.026;13.752;2022-12-16T09:07:49;118.70;;;51.25;;
27489;SDS011;14925;51.026;13.752;2022-12-16T09:10:33;124.93;;;52.47;;
27489;SDS011;14925;51.026;13.752;2022-12-16T09:13:17;125.68;;;53.97;;
27489;SDS011;14925;51.026;13.752;2022-12-16T09:16:01;120.70;;;52.97;;
27489;SDS011;14925;51.026;13.752;2022-12-16T09:18:45;126.57;;;53.75;;
27489;SDS011;14925;51.026;13.752;2022-12-16T09:24:13;121.30;;;51.50;;
27489;SDS011;14925;51.026;13.752;2022-12-16T09:27:00;123.13;;;52.47;;
27489;SDS011;14925;51.026;13.752;2022-12-16T09:30:01;121.43;;;51.75;;
27489;SDS011;14925;51.026;13.752;2022-12-16T09:32:46;124.18;;;52.97;;
27489;SDS011;14925;51.026;13.752;2022-12-16T09:35:30;127.35;;;55.35;;
27489;SDS011;14925;51.026;13.752;2022-12-16T09:38:14;121.57;;;51.53;;
27489;SDS011;14925;51.026;13.752;2022-12-16T09:49:55;117.72;;;49.63;;
27489;SDS011;14925;51.026;13.752;2022-12-16T09:52:47;105.93;;;45.92;;
27489;SDS011;14925;51.026;13.752;2022-12-16T09:55:41;115.45;;;49.60;;
27489;SDS011;14925;51.026;13.752;2022-12-16T09:58:35;112.03;;;49.05;;
27489;SDS011;14925;51.026;13.752;2022-12-16T10:01:23;119.68;;;49.92;;
27489;SDS011;14925;51.026;13.752;2022-12-16T10:06:52;117.43;;;49.15;;
27489;SDS011;14925;51.026;13.752;2022-12-16T10:12:55;117.93;;;50.63;;
27489;SDS011;14925;51.026;13.752;2022-12-16T10:21:22;111.82;;;49.30;;
27489;SDS011;14925;51.026;13.752;2022-12-16T10:24:23;112.90;;;49.53;;
27489;SDS011;14925;51.026;13.752;2022-12-16T10:27:13;119.03;;;51.13;;
27489;SDS011;14925;51.026;13.752;2022-12-16T10:29:58;113.15;;;49.55;;
27489;SDS011;14925;51.026;13.752;2022-12-16T10:32:47;114.78;;;50.30;;
27489;SDS011;14925;51.026;13.752;2022-12-16T10:41:22;112.45;;;50.60;;
27489;SDS011;14925;51.026;13.752;2022-12-16T10:44:16;116.22;;;52.47;;
27489;SDS011;14925;51.026;13.752;2022-12-16T10:47:05;113.47;;;51.38;;
27489;SDS011;14925;51.026;13.752;2022-12-16T10:49:49;115.10;;;52.55;;
27489;SDS011;14925;51.026;13.752;2022-12-16T10:52:34;119.45;;;51.83;;
27489;SDS011;14925;51.026;13.752;2022-12-16T10:55:29;119.75;;;50.85;;
27489;SDS011;14925;51.026;13.752;2022-12-16T10:58:24;122.85;;;50.17;;
27489;SDS011;14925;51.026;13.752;2022-12-16T11:01:20;122.55;;;52.38;;
27489;SDS011;14925;51.026;13.752;2022-12-16T11:04:27;117.95;;;50.63;;
27489;SDS011;14925;51.026;13.752;2022-12-16T11:08:01;124.70;;;52.83;;
27489;SDS011;14925;51.026;13.752;2022-12-16T11:16:18;118.95;;;52.47;;
27489;SDS011;14925;51.026;13.752;2022-12-16T11:19:20;116.22;;;52.03;;
27489;SDS011;14925;51.026;13.752;2022-12-16T11:22:12;126.50;;;54.25;;
27489;SDS011;14925;51.026;13.752;2022-12-16T11:25:05;127.03;;;55.35;;
27489;SDS011;14925;51.026;13.752;2022-12-16T11:28:03;122.22;;;52.97;;
27489;SDS011;14925;51.026;13.752;2022-12-16T11:30:51;126.32;;;53.85;;
27489;SDS011;14925;51.026;13.752;2022-12-16T11:33:36;122.63;;;54.88;;
27489;SDS011;14925;51.026;13.752;2022-12-16T11:39:05;131.20;;;52.22;;
27489;SDS011;14925;51.026;13.752;2022-12-16T11:41:51;126.85;;;51.80;;
27489;SDS011;14925;51.026;13.752;2022-12-16T11:44:43;122.97;;;52.97;;
27489;SDS011;14925;51.026;13.752;2022-12-16T11:50:55;122.93;;;53.50;;
27489;SDS011;14925;51.026;13.752;2022-12-16T11:53:51;122.82;;;50.95;;
27489;SDS011;14925;51.026;13.752;2022-12-16T11:56:41;115.95;;;51.35;;
27489;SDS011;14925;51.026;13.752;2022-12-16T12:02:33;123.25;;;52.65;;
27489;SDS011;14925;51.026;13.752;2022-12-16T12:05:21;119.28;;;51.30;;
27489;SDS011;14925;51.026;13.752;2022-12-16T12:11:33;117.00;;;52.30;;
27489;SDS011;14925;51.026;13.752;2022-12-16T12:14:36;117.82;;;52.13;;
27489;SDS011;14925;51.026;13.752;2022-12-16T12:17:38;120.93;;;52.40;;
27489;SDS011;14925;51.026;13.752;2022-12-16T12:20:49;115.15;;;51.67;;
27489;SDS011;14925;51.026;13.752;2022-12-16T12:30:05;112.47;;;49.58;;
27489;SDS011;14925;51.026;13.752;2022-12-16T12:41:47;124.22;;;53.05;;
27489;SDS011;14925;51.026;13.752;2022-12-16T12:47:52;118.25;;;53.38;;
27489;SDS011;14925;51.026;13.752;2022-12-16T12:51:07;122.57;;;51.40;;
27489;SDS011;14925;51.026;13.752;2022-12-16T12:57:04;120.90;;;51.03;;
27489;SDS011;14925;51.026;13.752;2022-12-16T12:59:51;125.40;;;54.05;;
27489;SDS011;14925;51.026;13.752;2022-12-16T13:02:43;121.72;;;53.40;;
27489;SDS011;14925;51.026;13.752;2022-12-16T13:05:31;120.53;;;52.72;;
27489;SDS011;14925;51.026;13.752;2022-12-16T13:08:34;115.82;;;53.22;;
27489;SDS011;14925;51.026;13.752;2022-12-16T13:11:26;121.78;;;52.60;;
27489;SDS011;14925;51.026;13.752;2022-12-16T13:17:13;125.38;;;52.80;;
27489;SDS011;14925;51.026;13.752;2022-12-16T13:19:57;121.13;;;53.47;;
27489;SDS011;14925;51.026;13.752;2022-12-16T13:22:42;124.60;;;53.92;;
27489;SDS011;14925;51.026;13.752;2022-12-16T13:25:37;126.75;;;53.15;;
27489;SDS011;14925;51.026;13.752;2022-12-16T13:28:32;129.85;;;54.58;;
27489;SDS011;14925;51.026;13.752;2022-12-16T13:31:18;127.85;;;54.50;;
27489;SDS011;14925;51.026;13.752;2022-12-16T13:34:05;126.57;;;55.45;;
27489;SDS011;14925;51.026;13.752;2022-12-16T13:36:57;131.45;;;54.53;;
27489;SDS011;14925;51.026;13.752;2022-12-16T13:39:42;129.38;;;55.17;;
27489;SDS011;14925;51.026;13.752;2022-12-16T13:43:00;117.65;;;52.72;;
27489;SDS011;14925;51.026;13.752;2022-12-16T13:45:42;127.68;;;55.95;;
27489;SDS011;14925;51.026;13.752;2022-12-16T13:48:32;131.43;;;54.70;;
27489;SDS011;14925;51.026;13.752;2022-12-16T13:54:31;130.65;;;55.35;;
27489;SDS011;14925;51.026;13.752;2022-12-16T13:57:18;98.43;;;43.57;;
27489;SDS011;14925;51.026;13.752;2022-12-16T14:00:14;132.35;;;55.33;;
27489;SDS011;14925;51.026;13.752;2022-12-16T14:03:08;130.55;;;53.90;;
27489;SDS011;14925;51.026;13.752;2022-12-16T14:05:54;130.25;;;55.00;;
27489;SDS011;14925;51.026;13.752;2022-12-16T14:08:38;134.07;;;57.47;;
27489;SDS011;14925;51.026;13.752;2022-12-16T14:11:25;122.50;;;54.08;;
27489;SDS011;14925;51.026;13.752;2022-12-16T14:14:25;119.32;;;54.58;;
27489;SDS011;14925;51.026;13.752;2022-12-16T14:17:23;126.47;;;53.15;;
27489;SDS011;14925;51.026;13.752;2022-12-16T14:20:28;127.03;;;55.92;;
27489;SDS011;14925;51.026;13.752;2022-12-16T14:26:11;126.07;;;53.70;;
27489;SDS011;14925;51.026;13.752;2022-12-16T14:28:56;127.68;;;53.97;;
27489;SDS011;14925;51.026;13.752;2022-12-16T14:31:41;123.72;;;53.75;;
27489;SDS011;14925;51.026;13.752;2022-12-16T14:34:44;128.90;;;55.47;;
27489;SDS011;14925;51.026;13.752;2022-12-16T14:37:35;129.77;;;56.53;;
27489;SDS011;14925;51.026;13.752;2022-12-16T14:40:27;124.32;;;55.58;;
27489;SDS011;14925;51.026;13.752;2022-12-16T14:43:23;130.40;;;56.80;;
27489;SDS011;14925;51.026;13.752;2022-12-16T14:49:11;134.93;;;56.83;;
27489;SDS011;14925;51.026;13.752;2022-12-16T14:52:01;127.03;;;54.90;;
27489;SDS011;14925;51.026;13.752;2022-12-16T14:54:45;124.50;;;53.95;;
27489;SDS011;14925;51.026;13.752;2022-12-16T14:57:29;135.57;;;56.15;;
27489;SDS011;14925;51.026;13.752;2022-12-16T15:00:19;134.73;;;58.47;;
27489;SDS011;14925;51.026;13.752;2022-12-16T15:06:02;124.88;;;55.17;;
27489;SDS011;14925;51.026;13.752;2022-12-16T15:08:59;139.45;;;58.28;;
27489;SDS011;14925;51.026;13.752;2022-12-16T15:11:46;126.75;;;56.03;;
27489;SDS011;14925;51.026;13.752;2022-12-16T15:14:34;135.20;;;57.90;;
27489;SDS011;14925;51.026;13.752;2022-12-16T15:17:24;131.57;;;56.90;;
27489;SDS011;14925;51.026;13.752;2022-12-16T15:20:23;135.85;;;57.05;;
27489;SDS011;14925;51.026;13.752;2022-12-16T15:23:11;136.80;;;58.80;;
27489;SDS011;14925;51.026;13.752;2022-12-16T15:26:01;136.35;;;58.55;;
27489;SDS011;14925;51.026;13.752;2022-12-16T15:28:45;136.85;;;59.65;;
27489;SDS011;14925;51.026;13.752;2022-12-16T15:31:31;129.32;;;56.30;;
27489;SDS011;14925;51.026;13.752;2022-12-16T15:34:25;136.77;;;58.45;;
27489;SDS011;14925;51.026;13.752;2022-12-16T15:40:04;138.63;;;59.45;;
27489;SDS011;14925;51.026;13.752;2022-12-16T15:43:21;136.55;;;57.45;;
27489;SDS011;14925;51.026;13.752;2022-12-16T15:46:24;131.65;;;58.33;;
27489;SDS011;14925;51.026;13.752;2022-12-16T15:49:52;136.45;;;59.70;;
27489;SDS011;14925;51.026;13.752;2022-12-16T15:52:41;134.02;;;56.05;;
27489;SDS011;14925;51.026;13.752;2022-12-16T15:55:28;136.85;;;59.65;;
27489;SDS011;14925;51.026;13.752;2022-12-16T16:01:03;139.57;;;59.90;;
27489;SDS011;14925;51.026;13.752;2022-12-16T16:03:50;146.43;;;61.63;;
27489;SDS011;14925;51.026;13.752;2022-12-16T16:06:35;132.98;;;58.55;;
27489;SDS011;14925;51.026;13.752;2022-12-16T16:09:21;135.48;;;59.85;;
27489;SDS011;14925;51.026;13.752;2022-12-16T16:12:15;139.48;;;58.50;;
27489;SDS011;14925;51.026;13.752;2022-12-16T16:15:02;137.70;;;58.95;;
27489;SDS011;14925;51.026;13.752;2022-12-16T16:21:00;145.38;;;59.40;;
27489;SDS011;14925;51.026;13.752;2022-12-16T16:23:44;139.93;;;60.30;;
27489;SDS011;14925;51.026;13.752;2022-12-16T16:26:28;134.45;;;60.35;;
27489;SDS011;14925;51.026;13.752;2022-12-16T16:29:12;134.00;;;60.15;;
27489;SDS011;14925;51.026;13.752;2022-12-16T16:31:56;131.45;;;56.58;;
27489;SDS011;14925;51.026;13.752;2022-12-16T16:34:40;139.85;;;59.25;;
27489;SDS011;14925;51.026;13.752;2022-12-16T16:37:24;140.80;;;62.47;;
27489;SDS011;14925;51.026;13.752;2022-12-16T16:40:15;140.65;;;59.45;;
27489;SDS011;14925;51.026;13.752;2022-12-16T16:42:59;135.05;;;58.78;;
27489;SDS011;14925;51.026;13.752;2022-12-16T16:45:43;135.35;;;58.58;;
27489;SDS011;14925;51.026;13.752;2022-12-16T16:48:28;136.15;;;57.00;;
27489;SDS011;14925;51.026;13.752;2022-12-16T16:51:12;134.38;;;56.97;;
27489;SDS011;14925;51.026;13.752;2022-12-16T16:53:55;138.85;;;60.53;;
27489;SDS011;14925;51.026;13.752;2022-12-16T16:56:39;135.32;;;60.28;;
27489;SDS011;14925;51.026;13.752;2022-12-16T16:59:24;142.30;;;61.72;;
27489;SDS011;14925;51.026;13.752;2022-12-16T17:02:18;133.73;;;59.70;;
27489;SDS011;14925;51.026;13.752;2022-12-16T17:05:04;138.82;;;59.88;;
27489;SDS011;14925;51.026;13.752;2022-12-16T17:07:49;131.32;;;57.95;;
27489;SDS011;14925;51.026;13.752;2022-12-16T17:10:33;128.25;;;56.85;;
27489;SDS011;14925;51.026;13.752;2022-12-16T17:13:20;133.05;;;58.97;;
27489;SDS011;14925;51.026;13.752;2022-12-16T17:16:10;131.02;;;55.95;;
27489;SDS011;14925;51.026;13.752;2022-12-16T17:18:55;124.65;;;56.22;;
27489;SDS011;14925;51.026;13.752;2022-12-16T17:21:39;128.07;;;58.00;;
27489;SDS011;14925;51.026;13.752;2022-12-16T17:24:23;134.25;;;55.75;;
27489;SDS011;14925;51.026;13.752;2022-12-16T17:27:17;127.05;;;57.53;;
27489;SDS011;14925;51.026;13.752;2022-12-16T17:30:06;125.30;;;55.17;;
27489;SDS011;14925;51.026;13.752;2022-12-16T17:33:00;127.25;;;54.67;;
27489;SDS011;14925;51.026;13.752;2022-12-16T17:35:46;127.80;;;56.30;;
27489;SDS011;14925;51.026;13.752;2022-12-16T17:38:32;134.45;;;57.75;;
27489;SDS011;14925;51.026;13.752;2022-12-16T17:41:19;126.82;;;55.85;;
27489;SDS011;14925;51.026;13.752;2022-12-16T17:44:03;134.73;;;58.35;;
27489;SDS011;14925;51.026;13.752;2022-12-16T17:46:47;128.85;;;57.85;;